Stations météo

réclame
Mon MeteoGroup
Hupsel aws, Pays-Bas (6283): Température de l'air & dewpoint: 03.07.2020 20:00:00 - 09.07.2020 20:00:00 (CEST)Hupsel aws, Pays-Bas (6283): Température de l'air 5cm: 03.07.2020 20:00:00 - 09.07.2020 20:00:00 (CEST)Hupsel aws, Pays-Bas (6283): Vitesse du vent & gusts: 03.07.2020 20:00:00 - 09.07.2020 20:00:00 (CEST)Hupsel aws, Pays-Bas (6283): Direction du vent: 03.07.2020 20:00:00 - 09.07.2020 20:00:00 (CEST)Hupsel aws, Pays-Bas (6283): Quantités de précipitations: 03.07.2020 20:00:00 - 09.07.2020 20:00:00 (CEST)
Date & Time tt [°C] td [°C] tt 5cm [°C] ff [km/h] ff [knt] fx [km/h] fx [knt] dd rr [mm]
09.07.2020 20:00:00 17,5 17,1 17,6 11 6 22 12 WSW 0,4
09.07.2020 19:00:00 17,1 16,5 17,3 14 8 22 12 W 0,9
09.07.2020 18:00:00 17,7 16,4 17,6 14 8 25 14 WSW 0,1
09.07.2020 17:00:00 18,3 16,0 18,0 18 10 32 18 WSW 0,0
09.07.2020 16:00:00 17,5 15,6 17,6 14 8 40 21 W 0,0
09.07.2020 15:00:00 18,1 16,1 17,9 18 10 40 21 WSW 0,0
09.07.2020 14:00:00 19,0 16,3 19,0 22 12 36 19 SW 0,0
09.07.2020 13:00:00 18,4 15,9 19,1 18 10 36 19 SW 0,0
09.07.2020 12:00:00 17,6 16,6 18,0 18 10 29 16 SW 0,1
09.07.2020 11:00:00 17,0 16,2 16,9 11 6 29 16 SW 0,8
09.07.2020 10:00:00 17,1 16,2 17,0 11 6 32 18 SW 0,0
09.07.2020 09:00:00 16,9 16,1 16,8 14 8 32 18 SW 0,0
09.07.2020 08:00:00 16,5 16,1 16,4 11 6 25 14 SW 0,1
09.07.2020 07:00:00 15,8 15,6 15,7 11 6 18 10 SSW 2,4
09.07.2020 06:00:00 15,4 15,2 15,4 7 4 18 10 S 1,7
09.07.2020 05:00:00 15,5 15,3 15,5 7 4 18 10 S 0,2
09.07.2020 04:00:00 15,7 15,5 15,7 7 4 14 8 S 0,2
09.07.2020 03:00:00 15,8 15,6 15,7 4 2 14 8 SSW 0,0
09.07.2020 02:00:00 15,9 15,6 15,7 7 4 14 8 S 0,0
09.07.2020 01:00:00 15,9 15,4 15,7 7 4 11 6 S 0,0
09.07.2020 00:00:00 15,9 15,4 15,7 4 2 14 8 SSW 0,0
08.07.2020 23:00:00 16,0 15,0 15,7 11 6 14 8 S 0,1
08.07.2020 22:00:00 16,2 14,7 15,6 11 6 14 8 S 0,0
08.07.2020 21:00:00 16,3 14,7 15,9 7 4 11 6 SSE 0,0
08.07.2020 20:00:00 16,3 14,8 16,4 7 4 7 4 SSE 0,0
08.07.2020 19:00:00 16,2 14,2 16,3 4 2 7 4 SE 0,0
08.07.2020 18:00:00 15,7 14,3 16,1 4 2 7 4 SSE 0,0
08.07.2020 17:00:00 15,4 14,1 16,2 4 2 14 8 S 0,0
08.07.2020 16:00:00 15,5 14,1 16,4 7 4 14 8 SSW 0,1
08.07.2020 15:00:00 14,9 13,7 16,2 7 4 18 10 SSW 0,2
08.07.2020 14:00:00 15,6 13,0 16,9 11 6 18 10 SW 0,0
08.07.2020 13:00:00 14,8 12,9 15,6 11 6 18 10 SSW 0,0
08.07.2020 12:00:00 13,9 13,0 14,6 7 4 18 10 SSW 0,1
08.07.2020 11:00:00 12,8 12,2 13,6 11 6 25 14 SSW 0,0
08.07.2020 10:00:00 13,0 12,5 13,6 11 6 22 12 SSW 0,1
08.07.2020 09:00:00 13,5 12,6 13,9 7 4 18 10 SW 0,0
08.07.2020 08:00:00 13,2 12,2 13,4 7 4 18 10 SW 0,0
08.07.2020 07:00:00 12,9 11,7 12,9 7 4 14 8 SSW 0,2
08.07.2020 06:00:00 12,7 11,7 12,7 4 2 14 8 S 0,3
08.07.2020 05:00:00 12,7 11,9 12,9 4 2 4 2 S 0,0
08.07.2020 04:00:00 12,7 12,0 12,7 4 2 7 4 SSW 0,0
08.07.2020 03:00:00 12,6 11,7 12,9 4 2 7 4 SSW 0,0
08.07.2020 02:00:00 12,7 11,7 12,6 7 4 7 4 SE 0,0
08.07.2020 01:00:00 12,7 12,5 12,9 0 0 7 4 N 0,1
08.07.2020 00:00:00 12,9 11,9 13,1 4 2 7 4 ESE 0,0
07.07.2020 23:00:00 13,4 11,3 12,9 4 2 11 6 N 0,0
07.07.2020 22:00:00 14,3 11,1 13,6 7 4 14 8 NW 0,0
07.07.2020 21:00:00 15,2 11,9 14,9 4 2 11 6 NNW 0,0
07.07.2020 20:00:00 16,1 10,3 15,6 11 6 14 8 NW 0,0
07.07.2020 19:00:00 17,0 10,9 17,1 7 4 22 12 NNW 0,0
07.07.2020 18:00:00 17,1 9,4 16,5 11 6 25 14 W 0,0
07.07.2020 17:00:00 18,0 9,5 18,4 14 8 29 16 W 0,0
07.07.2020 16:00:00 18,3 9,0 19,7 18 10 36 19 W 0,0
07.07.2020 15:00:00 18,5 10,2 20,0 18 10 43 23 WNW 0,0
07.07.2020 14:00:00 17,0 13,5 18,7 11 6 25 14 WSW 3,0
07.07.2020 13:00:00 15,4 12,0 15,8 7 4 25 14 WSW 0,6
07.07.2020 12:00:00 17,3 10,8 20,4 18 10 29 16 S 0,0
07.07.2020 11:00:00 15,0 11,2 15,4 11 6 22 12 SSW 0,0
07.07.2020 10:00:00 14,4 11,4 15,2 11 6 22 12 S 0,0
07.07.2020 09:00:00 13,0 10,9 14,1 11 6 18 10 S 0,0
07.07.2020 08:00:00 12,1 10,6 12,6 7 4 11 6 S 0,0
07.07.2020 07:00:00 10,2 9,7 9,2 4 2 7 4 S 0,0
07.07.2020 06:00:00 8,5 8,5 5,8 4 2 7 4 SSW 0,0
07.07.2020 05:00:00 8,4 8,1 5,4 4 2 7 4 SSW 0,0
07.07.2020 04:00:00 9,1 8,6 6,7 4 2 11 6 SW 0,0
07.07.2020 03:00:00 9,3 8,6 7,0 7 4 7 4 WSW 0,0
07.07.2020 02:00:00 10,1 8,9 8,5 4 2 11 6 SW 0,0
07.07.2020 01:00:00 11,4 9,3 10,4 7 4 14 8 W 0,0
07.07.2020 00:00:00 11,8 9,5 10,6 7 4 14 8 WSW 0,0
06.07.2020 23:00:00 12,6 9,6 10,9 7 4 18 10 W 0,0
06.07.2020 22:00:00 13,8 9,5 12,7 11 6 18 10 W 0,0
06.07.2020 21:00:00 14,7 9,9 13,9 11 6 25 14 W 0,0
06.07.2020 20:00:00 15,9 11,2 16,6 11 6 29 16 W 0,0
06.07.2020 19:00:00 15,7 11,5 15,2 14 8 32 18 W 0,0
06.07.2020 18:00:00 14,9 11,6 15,2 18 10 36 19 WNW 0,4
06.07.2020 17:00:00 15,7 12,5 16,5 14 8 36 19 WNW 1,3
06.07.2020 16:00:00 12,6 10,1 12,0 25 14 54 29 NW 1,8
06.07.2020 15:00:00 15,1 11,5 14,1 14 8 58 31 W 1,2
06.07.2020 14:00:00 16,5 12,0 17,0 18 10 40 21 W 0,3
06.07.2020 13:00:00 13,8 11,5 13,3 14 8 50 27 W 2,2
06.07.2020 12:00:00 15,7 10,0 16,8 22 12 43 23 W 0,0
06.07.2020 11:00:00 17,5 10,1 17,8 18 10 47 25 W 0,0
06.07.2020 10:00:00 16,1 8,9 16,3 25 14 50 27 W 0,0
06.07.2020 09:00:00 15,3 10,4 15,3 25 14 43 23 WSW 0,0
06.07.2020 08:00:00 14,4 10,7 14,5 22 12 36 19 WSW 0,0
06.07.2020 07:00:00 13,5 10,6 12,8 14 8 32 18 SW 0,0
06.07.2020 06:00:00 13,3 10,7 11,8 11 6 22 12 SW 0,0
06.07.2020 05:00:00 13,3 10,5 11,6 11 6 25 14 SW 0,0
06.07.2020 04:00:00 13,5 10,7 12,2 14 8 29 16 SW 0,0
06.07.2020 03:00:00 14,2 10,4 12,8 14 8 32 18 SW 0,0
06.07.2020 02:00:00 15,1 10,3 13,9 18 10 43 23 SW 0,0
06.07.2020 01:00:00 16,2 10,4 15,5 25 14 43 23 WSW 0,0
06.07.2020 00:00:00 16,7 10,1 15,5 22 12 36 19 WSW 0,0
05.07.2020 23:00:00 17,2 11,1 16,1 18 10 29 16 WSW 0,0
05.07.2020 22:00:00 17,9 11,1 16,6 14 8 29 16 W 0,0
05.07.2020 21:00:00 19,7 11,5 19,1 14 8 43 23 W 0,0
05.07.2020 20:00:00 20,7 11,9 20,8 25 14 50 27 WSW 0,0
05.07.2020 19:00:00 21,9 13,1 22,7 25 14 50 27 WSW 0,0
05.07.2020 18:00:00 22,1 14,8 22,0 18 10 43 23 W 0,0
05.07.2020 17:00:00 20,5 15,8 20,8 18 10 47 25 W 0,0
05.07.2020 16:00:00 21,5 16,1 21,7 36 19 65 35 WSW 0,0
05.07.2020 15:00:00 21,0 17,1 21,3 25 14 58 31 WSW 0,0
05.07.2020 14:00:00 19,7 17,6 20,3 32 18 54 29 SW 0,1
05.07.2020 13:00:00 18,6 17,6 18,9 25 14 47 25 SW 0,2
05.07.2020 12:00:00 18,3 16,8 18,5 22 12 47 25 SW 0,0
05.07.2020 11:00:00 18,0 16,8 18,1 22 12 50 27 SW 0,0
05.07.2020 10:00:00 18,4 15,9 18,1 25 14 47 25 SW 0,0
05.07.2020 09:00:00 18,3 15,4 17,9 22 12 43 23 SSW 0,0
05.07.2020 08:00:00 18,1 15,4 17,5 22 12 47 25 SW 0,0
05.07.2020 07:00:00 17,8 15,2 16,9 22 12 40 21 SW 0,0
05.07.2020 06:00:00 17,2 16,2 16,8 14 8 40 21 SW 0,0
05.07.2020 05:00:00 18,0 16,2 17,2 25 14 40 21 WSW 0,2
05.07.2020 04:00:00 17,8 17,6 17,7 18 10 40 21 WSW 2,7
05.07.2020 03:00:00 18,3 17,5 17,9 18 10 36 19 SW 0,1
05.07.2020 02:00:00 18,3 17,5 17,9 18 10 32 18 SSW 0,0
05.07.2020 01:00:00 18,1 17,4 17,8 18 10 36 19 SSW 0,2
05.07.2020 00:00:00 17,9 17,1 17,6 14 8 32 18 SSW 0,1
04.07.2020 23:00:00 18,1 16,8 17,6 18 10 36 19 SSW 0,1
04.07.2020 22:00:00 18,8 16,2 17,7 18 10 36 19 SSW 0,0
04.07.2020 21:00:00 18,6 16,2 18,0 18 10 40 21 SSW 0,0
04.07.2020 20:00:00 18,9 15,8 18,3 14 8 40 21 SW 0,0
04.07.2020 19:00:00 19,6 15,3 18,8 14 8 36 19 SSW 0,0
04.07.2020 18:00:00 19,2 15,4 18,7 14 8 36 19 SW 0,0
04.07.2020 17:00:00 19,0 15,4 18,9 18 10 36 19 SSW 0,0
04.07.2020 16:00:00 17,7 15,9 17,8 14 8 36 19 SW 0,0
04.07.2020 15:00:00 17,2 16,4 18,1 14 8 36 19 SSW 0,3
04.07.2020 14:00:00 18,0 15,0 18,3 22 12 47 25 SW 0,0
04.07.2020 13:00:00 18,7 13,7 18,7 18 10 40 21 SSW 0,0
04.07.2020 12:00:00 19,0 13,3 19,7 22 12 40 21 SSW 0,0
04.07.2020 11:00:00 18,4 13,6 18,8 18 10 32 18 SSW 0,0
04.07.2020 10:00:00 16,3 13,3 16,3 14 8 36 19 SSW 0,0
04.07.2020 09:00:00 15,4 13,1 15,0 18 10 32 18 SSW 0,1
04.07.2020 08:00:00 14,2 13,2 14,2 14 8 29 16 SSW 0,4
04.07.2020 07:00:00 14,6 12,3 14,1 14 8 32 18 SW 0,0
04.07.2020 06:00:00 15,3 11,3 14,2 14 8 32 18 SSW 0,0
04.07.2020 05:00:00 15,4 11,3 14,4 11 6 36 19 SW 0,0
04.07.2020 04:00:00 16,4 10,6 15,4 18 10 36 19 SW 0,0
04.07.2020 03:00:00 16,2 9,7 15,1 14 8 32 18 SSW 0,0
04.07.2020 02:00:00 16,4 9,5 14,9 14 8 29 16 SW 0,0
04.07.2020 01:00:00 16,6 10,0 14,9 11 6 25 14 SW 0,0
04.07.2020 00:00:00 16,7 10,5 14,0 7 4 14 8 SSW 0,0
03.07.2020 23:00:00 16,7 10,9 15,1 11 6 29 16 WSW 0,0
03.07.2020 22:00:00 18,4 11,1 16,8 14 8 25 14 WSW 0,0
03.07.2020 21:00:00 19,7 12,1 18,6 14 8 25 14 WSW 0,0
03.07.2020 20:00:00 20,5 13,2 20,4 18 10 36 19 SW 0,0

tt = Température de l'air
td = dewpoint
tt 5cm = Température de l'air 5cm
ff = Vitesse du vent
fx = gusts
dd = Direction du vent
rr = Quantités de précipitations

stations d'obs. à proximité